M I D A S
Marine Information and Data Acquisition System
Tripno 2124 of the Zeeleeuw from 2011-06-20 06:51:14 to 2011-06-20 15:03:38
Back to CruiseResearch ActivitiesStationsMapUnderway DataData graphs

EquipmentUnitsComments
TimeDGPSUTC
LatitudeDGPSDM.mWGS84
LongitudeDGPSDM.mWGS84
SpeedMeteo Stationm/sRelative wind speed
DirectionMeteo StationdegRelative wind direction
TemperatureMeteo Stationdeg CelciusAir temperature
PressureMeteo StationPaAtmospheric pressure
HumidityMeteo Station%Relative humidity
Missing or incorrect values are displayed as -999
Metereological data collected by the RV Zeeleeuw from 2011-06-20 06:51:25 to 2011-06-20 15:51:21
                                                                                    Next 1000 lines
Time Latitude Longitude Speed Direction Temperature Pressure Humidity
2011-06-20 06:51:35 51°13.636 2°56.012 -999 353 12.1 101230 43
2011-06-20 06:51:40 51°13.638 2°56.008 -999 2 12.1 101230 42
2011-06-20 06:51:44 51°13.638 2°56.004 -999 32 12.1 101230 42
2011-06-20 06:51:49 51°13.64 2°55.998 -999 29 12.1 101230 42
2011-06-20 06:51:56 51°13.642 2°55.989 -999 27 12.1 101230 42
2011-06-20 06:52:01 51°13.644 2°55.982 -999 23 12.1 101230 42
2011-06-20 06:52:07 51°13.647 2°55.973 -999 28 12.1 101230 42
2011-06-20 06:52:12 51°13.649 2°55.965 -999 30 12.1 101230 42
2011-06-20 06:52:18 51°13.652 2°55.954 -999 28 12.2 101230 42
2011-06-20 06:52:23 51°13.655 2°55.944 -999 30 12.2 101230 42
2011-06-20 06:52:28 51°13.658 2°55.934 -999 31 12.1 101230 41
2011-06-20 06:52:32 51°13.66 2°55.926 -999 34 12.1 101230 41
2011-06-20 06:52:38 51°13.664 2°55.913 -999 34 12.1 101230 41
2011-06-20 06:52:43 51°13.667 2°55.902 -999 34 12.1 101230 42
2011-06-20 06:52:48 51°13.669 2°55.892 -999 37 12.1 101230 42
2011-06-20 06:52:53 51°13.672 2°55.881 -999 38 12.1 101230 42
2011-06-20 06:52:58 51°13.674 2°55.872 -999 39 12.1 101230 42
2011-06-20 06:53:03 51°13.677 2°55.863 -999 38 12.1 101230 42
2011-06-20 06:53:08 51°13.679 2°55.854 -999 29 12.1 101230 42
2011-06-20 06:53:13 51°13.681 2°55.845 -999 28 12.1 101230 42
2011-06-20 06:53:18 51°13.683 2°55.836 -999 36 12.1 101230 42
2011-06-20 06:53:23 51°13.685 2°55.828 -999 28 12.1 101230 42
2011-06-20 06:53:28 51°13.686 2°55.821 -999 28 12.1 101230 42
2011-06-20 06:53:32 51°13.687 2°55.814 -999 15 12.1 101230 42
2011-06-20 06:53:37 51°13.689 2°55.806 -999 22 12.1 101230 42
2011-06-20 06:53:42 51°13.69 2°55.799 -999 29 12.1 101230 42
2011-06-20 06:53:48 51°13.692 2°55.79 -999 32 12.1 101230 42
2011-06-20 06:53:52 51°13.692 2°55.784 -999 33 12.1 101230 42
2011-06-20 06:53:58 51°13.694 2°55.775 -999 43 12.1 101230 42
2011-06-20 06:54:03 51°13.695 2°55.768 -999 32 12.1 101230 42
2011-06-20 06:54:08 51°13.695 2°55.761 -999 40 12.1 101230 42
2011-06-20 06:54:12 51°13.696 2°55.755 -999 13 12.1 101230 42
2011-06-20 06:54:18 51°13.696 2°55.748 -999 19 12.1 101230 42
2011-06-20 06:54:23 51°13.696 2°55.743 -999 16 12.1 101230 42
2011-06-20 06:54:28 51°13.696 2°55.739 -999 19 12.1 101230 42
2011-06-20 06:54:32 51°13.696 2°55.737 -999 9 12.1 101230 42
2011-06-20 06:54:37 51°13.696 2°55.737 -999 18 12.1 101230 42
2011-06-20 06:54:42 51°13.697 2°55.736 -999 19 12.1 101230 42
2011-06-20 06:54:47 51°13.697 2°55.736 -999 17 12.1 101230 42
2011-06-20 06:54:52 51°13.698 2°55.736 -999 20 12.1 101230 42
2011-06-20 06:54:56 51°13.699 2°55.737 -999 23 12.1 101230 42
2011-06-20 06:55:01 51°13.7 2°55.737 -999 30 12.1 101230 42
2011-06-20 06:55:06 51°13.701 2°55.738 -999 25 12.1 101230 41
2011-06-20 06:55:11 51°13.703 2°55.739 -999 27 12.1 101230 41
2011-06-20 06:55:16 51°13.704 2°55.74 -999 28 12.1 101230 41
2011-06-20 06:55:20 51°13.706 2°55.74 -999 37 12.1 101230 42
2011-06-20 06:55:25 51°13.708 2°55.741 -999 34 12.1 101230 42
2011-06-20 06:55:30 51°13.71 2°55.741 -999 41 12.1 101230 42
2011-06-20 06:55:35 51°13.711 2°55.741 -999 45 12.1 101230 42
2011-06-20 06:55:40 51°13.712 2°55.741 1.3 43 12.1 101230 42
2011-06-20 06:55:44 51°13.712 2°55.741 0.2 40 12.1 101230 42
2011-06-20 06:55:49 51°13.711 2°55.741 0.2 73 12.2 101230 42
2011-06-20 06:55:55 51°13.709 2°55.74 1.1 33 12.2 101230 42
2011-06-20 06:55:59 51°13.708 2°55.74 1.5 75 12.2 101230 44
2011-06-20 06:56:04 51°13.706 2°55.74 0.6 38 12.2 101230 44
2011-06-20 06:56:10 51°13.704 2°55.74 0.2 78 12.1 101230 42
2011-06-20 06:56:16 51°13.703 2°55.74 0.1 33 12.1 101230 41
2011-06-20 06:56:21 51°13.703 2°55.74 0.1 78 12.1 101230 41
2011-06-20 06:56:27 51°13.703 2°55.739 0.1 38 12.1 101230 41
2011-06-20 06:56:32 51°13.703 2°55.739 0.2 80 12.1 101230 42
2011-06-20 06:56:38 51°13.705 2°55.738 0.1 36 12.1 101230 42
2011-06-20 06:56:43 51°13.707 2°55.736 0.1 78 12.1 101230 42
2011-06-20 06:56:48 51°13.711 2°55.734 -999 35 12.1 101230 41
2011-06-20 06:56:52 51°13.714 2°55.731 -999 78 12.1 101230 41
2011-06-20 06:56:58 51°13.72 2°55.725 -999 244 12.1 101230 41
2011-06-20 06:57:03 51°13.726 2°55.719 -999 282 12.1 101230 42
2011-06-20 06:57:08 51°13.733 2°55.713 -999 337 12.1 101230 42
2011-06-20 06:57:12 51°13.74 2°55.707 -999 282 12.1 101230 42
2011-06-20 06:57:17 51°13.748 2°55.7 -999 342 12.1 101230 42
2011-06-20 06:57:22 51°13.758 2°55.692 -999 282 12.1 101230 43
2011-06-20 06:57:27 51°13.767 2°55.684 -999 330 12.1 101230 43
2011-06-20 06:57:32 51°13.778 2°55.676 0.1 285 12.2 101230 42
2011-06-20 06:57:37 51°13.789 2°55.667 0.1 327 12.2 101230 42
2011-06-20 06:57:42 51°13.8 2°55.658 0.1 282 12.1 101230 42
2011-06-20 06:57:48 51°13.814 2°55.647 -999 325 12.1 101230 41
2011-06-20 06:57:52 51°13.824 2°55.639 -999 277 12.1 101230 41
2011-06-20 06:57:58 51°13.839 2°55.627 1.1 326 12.2 101230 42
2011-06-20 06:58:03 51°13.851 2°55.618 0.1 282 12.2 101230 42
2011-06-20 06:58:08 51°13.864 2°55.607 0.1 335 12.2 101230 42
2011-06-20 06:58:12 51°13.875 2°55.6 0.4 281 12.2 101230 42
2011-06-20 06:58:17 51°13.888 2°55.59 0.1 331 12.2 101230 42
2011-06-20 06:58:22 51°13.902 2°55.58 0.1 283 12.2 101230 43
2011-06-20 06:58:28 51°13.917 2°55.568 -999 330 12.2 101230 43
2011-06-20 06:58:32 51°13.929 2°55.56 -999 282 12.2 101230 44
2011-06-20 06:58:38 51°13.945 2°55.547 -999 329 12.2 101230 42
2011-06-20 06:58:43 51°13.959 2°55.536 -999 282 12.2 101230 42
2011-06-20 06:58:48 51°13.973 2°55.526 -999 330 12.1 101230 42
2011-06-20 06:58:52 51°13.984 2°55.518 -999 282 12.1 101230 42
2011-06-20 06:58:58 51°14.001 2°55.505 -999 329 12.2 101230 42
2011-06-20 06:59:03 51°14.015 2°55.495 -999 282 12.2 101230 42
2011-06-20 06:59:08 51°14.029 2°55.485 -999 330 12.2 101230 42
2011-06-20 06:59:12 51°14.04 2°55.476 -999 282 12.2 101230 42
2011-06-20 06:59:18 51°14.057 2°55.464 -999 328 12.2 101230 42
2011-06-20 06:59:22 51°14.069 2°55.455 -999 282 12.2 101230 42
2011-06-20 06:59:28 51°14.086 2°55.443 -999 334 12.2 101230 42
2011-06-20 06:59:32 51°14.097 2°55.434 -999 282 12.2 101230 42
2011-06-20 06:59:37 51°14.112 2°55.423 -999 332 12.2 101230 42
2011-06-20 06:59:42 51°14.126 2°55.412 -999 282 12.1 101230 42
2011-06-20 06:59:47 51°14.14 2°55.401 -999 333 12.1 101230 42
2011-06-20 06:59:52 51°14.154 2°55.39 -999 282 12.1 101230 42
2011-06-20 06:59:56 51°14.166 2°55.381 -999 329 12.1 101230 42
2011-06-20 07:00:01 51°14.18 2°55.369 -999 282 12.1 101230 42
2011-06-20 07:00:06 51°14.194 2°55.357 -999 331 12.1 101230 42
2011-06-20 07:00:11 51°14.208 2°55.345 -999 282 12.1 101230 42
2011-06-20 07:00:16 51°14.221 2°55.333 -999 333 12.1 101230 42
2011-06-20 07:00:21 51°14.235 2°55.321 -999 282 12.1 101230 42
2011-06-20 07:00:26 51°14.249 2°55.308 -999 335 12.1 101230 42
2011-06-20 07:00:31 51°14.263 2°55.296 -999 282 12.1 101230 41
2011-06-20 07:00:36 51°14.277 2°55.283 -999 335 12.1 101230 42
2011-06-20 07:00:40 51°14.288 2°55.273 -999 282 12.1 101230 42
2011-06-20 07:00:45 51°14.302 2°55.26 -999 336 12.1 101230 42
2011-06-20 07:00:50 51°14.316 2°55.247 -999 282 12.1 101230 43
2011-06-20 07:00:56 51°14.333 2°55.23 -999 328 12.1 101230 43
2011-06-20 07:01:00 51°14.344 2°55.219 -999 282 12.1 101230 43
2011-06-20 07:01:05 51°14.358 2°55.206 -999 326 12.1 101230 43
2011-06-20 07:01:09 51°14.37 2°55.195 -999 282 12.1 101230 42
2011-06-20 07:01:14 51°14.384 2°55.182 -999 334 12.1 101230 42
2011-06-20 07:01:20 51°14.401 2°55.166 1.9 278 12.2 101230 42
2011-06-20 07:01:24 51°14.412 2°55.155 1.5 326 12.2 101230 42
2011-06-20 07:01:28 51°14.424 2°55.144 2.2 280 12.2 101230 43
2011-06-20 07:01:34 51°14.44 2°55.127 1.8 327 12.2 101230 43
2011-06-20 07:01:40 51°14.457 2°55.111 1.7 284 12.2 101230 43
2011-06-20 07:01:44 51°14.468 2°55.1 1 326 12.2 101230 43
2011-06-20 07:01:49 51°14.482 2°55.086 2.5 280 12.2 101230 43
2011-06-20 07:01:55 51°14.499 2°55.069 2.1 321 12.2 101230 43
2011-06-20 07:01:59 51°14.51 2°55.057 2.2 280 12.2 101230 43
2011-06-20 07:02:04 51°14.524 2°55.042 3.3 320 12.2 101230 41
2011-06-20 07:02:09 51°14.538 2°55.027 2 282 12.2 101230 41
2011-06-20 07:02:14 51°14.552 2°55.012 2.9 316 12.2 101230 41
2011-06-20 07:02:20 51°14.568 2°54.99 2.3 279 12.2 101230 44
2011-06-20 07:02:24 51°14.579 2°54.976 1.8 30 12.2 101230 44
2011-06-20 07:02:29 51°14.592 2°54.957 2.3 284 12.2 101230 43
2011-06-20 07:02:34 51°14.606 2°54.941 1.3 318 12.2 101230 43
2011-06-20 07:02:40 51°14.623 2°54.919 1.4 277 12.2 101230 42
2011-06-20 07:02:44 51°14.634 2°54.906 1.8 323 12.2 101230 42
2011-06-20 07:02:49 51°14.648 2°54.888 2.8 280 12.2 101230 42
2011-06-20 07:02:54 51°14.663 2°54.871 3.7 323 12.2 101230 43
2011-06-20 07:03:00 51°14.68 2°54.85 2.7 283 12.2 101230 43
2011-06-20 07:03:04 51°14.692 2°54.837 3 326 12.2 101230 43
2011-06-20 07:03:08 51°14.704 2°54.823 3.5 279 12.2 101230 41
2011-06-20 07:03:14 51°14.721 2°54.803 2.6 325 12.2 101230 43
2011-06-20 07:03:20 51°14.739 2°54.783 2.2 278 12.2 101230 43
2011-06-20 07:03:24 51°14.751 2°54.769 2.3 325 12.2 101230 43
2011-06-20 07:03:29 51°14.766 2°54.752 2 284 12.2 101230 42
2011-06-20 07:03:34 51°14.78 2°54.734 2.3 324 12.2 101230 42
2011-06-20 07:03:40 51°14.798 2°54.714 2.4 278 12.2 101230 44
2011-06-20 07:03:44 51°14.811 2°54.701 2.1 325 12.2 101230 44
2011-06-20 07:03:49 51°14.826 2°54.684 3.3 284 12.2 101240 43
2011-06-20 07:03:54 51°14.841 2°54.668 2.4 326 12.2 101240 43
2011-06-20 07:04:00 51°14.859 2°54.648 2.4 285 12.2 101240 43
2011-06-20 07:04:04 51°14.871 2°54.635 2.4 328 12.2 101240 43
2011-06-20 07:04:09 51°14.886 2°54.618 2.5 286 12.2 101230 43
2011-06-20 07:04:14 51°14.901 2°54.601 2.2 333 12.2 101230 43
2011-06-20 07:04:19 51°14.917 2°54.585 0.2 282 12.2 101230 42
2011-06-20 07:04:24 51°14.932 2°54.568 0.1 330 12.2 101230 42
2011-06-20 07:04:29 51°14.947 2°54.552 -999 282 12.2 101230 44
2011-06-20 07:04:34 51°14.962 2°54.536 -999 332 12.2 101230 44
2011-06-20 07:04:40 51°14.98 2°54.516 -999 282 12.2 101230 42
2011-06-20 07:04:44 51°14.992 2°54.502 -999 326 12.2 101230 42
2011-06-20 07:04:49 51°15.007 2°54.485 -999 282 12.2 101240 42
2011-06-20 07:04:54 51°15.021 2°54.467 -999 324 12.2 101230 43
2011-06-20 07:05:00 51°15.039 2°54.446 -999 282 12.2 101230 43
2011-06-20 07:05:04 51°15.051 2°54.432 -999 321 12.2 101230 43
2011-06-20 07:05:08 51°15.063 2°54.419 2 283 12.2 101230 43
2011-06-20 07:05:14 51°15.082 2°54.401 2 330 12.2 101230 43
2011-06-20 07:05:20 51°15.102 2°54.384 1.5 285 12.2 101230 43
2011-06-20 07:05:24 51°15.115 2°54.374 1.5 333 12.2 101230 43
2011-06-20 07:05:29 51°15.131 2°54.361 2 287 12.2 101230 42
2011-06-20 07:05:35 51°15.151 2°54.348 2.2 336 12.2 101230 41
2011-06-20 07:05:40 51°15.168 2°54.338 0.9 284 12.2 101230 41
2011-06-20 07:05:44 51°15.182 2°54.332 1.5 340 12.2 101230 41
2011-06-20 07:05:49 51°15.199 2°54.324 1.8 281 12.2 101240 40
2011-06-20 07:05:54 51°15.217 2°54.318 1.7 336 12.2 101240 40
2011-06-20 07:06:00 51°15.238 2°54.313 0.7 283 12.2 101230 42
2011-06-20 07:06:04 51°15.252 2°54.31 0.8 339 12.2 101240 43
2011-06-20 07:06:09 51°15.27 2°54.308 0.9 286 12.2 101240 43
2011-06-20 07:06:15 51°15.292 2°54.305 2.2 342 12.2 101240 43
2011-06-20 07:06:19 51°15.306 2°54.304 2.2 281 12.1 101230 40
2011-06-20 07:06:24 51°15.324 2°54.302 2 339 12.1 101240 42
2011-06-20 07:06:29 51°15.342 2°54.301 1.9 279 12.1 101240 42
2011-06-20 07:06:35 51°15.363 2°54.3 2.1 342 12.1 101240 42
2011-06-20 07:06:39 51°15.378 2°54.3 1.2 282 12.1 101230 42
2011-06-20 07:06:44 51°15.396 2°54.301 2.4 340 12.1 101240 41
2011-06-20 07:06:49 51°15.414 2°54.301 1.8 284 12.1 101240 41
2011-06-20 07:06:55 51°15.435 2°54.302 0.5 338 12.1 101240 41
2011-06-20 07:06:59 51°15.45 2°54.303 0.1 282 12.1 101240 44
2011-06-20 07:07:04 51°15.468 2°54.304 0.1 345 12.1 101240 44
2011-06-20 07:07:09 51°15.485 2°54.305 3.1 279 12.1 101230 43
2011-06-20 07:07:14 51°15.503 2°54.305 3.7 344 12.1 101230 43
2011-06-20 07:07:20 51°15.525 2°54.305 3.1 279 12.1 101240 42
2011-06-20 07:07:24 51°15.539 2°54.305 2.5 343 12.1 101240 42
2011-06-20 07:07:28 51°15.554 2°54.304 2.7 278 12.2 101240 43
2011-06-20 07:07:34 51°15.575 2°54.302 2.6 341 12.2 101240 43
2011-06-20 07:07:40 51°15.597 2°54.301 3.1 286 12.2 101230 43
2011-06-20 07:07:44 51°15.611 2°54.3 3.4 342 12.2 101230 43
2011-06-20 07:07:48 51°15.625 2°54.299 3.1 341 12.2 101240 43
2011-06-20 07:07:55 51°15.65 2°54.298 2.6 344 12.2 101240 43
2011-06-20 07:08:00 51°15.668 2°54.297 2.8 285 12.2 101230 42
2011-06-20 07:08:04 51°15.683 2°54.297 2.8 343 12.2 101230 42
2011-06-20 07:08:09 51°15.701 2°54.297 2.4 283 12.2 101230 44
2011-06-20 07:08:14 51°15.719 2°54.297 2.9 344 12.2 101230 44
2011-06-20 07:08:20 51°15.74 2°54.297 2.6 284 12.2 101230 43
2011-06-20 07:08:24 51°15.755 2°54.297 2.3 341 12.2 101230 43
2011-06-20 07:08:28 51°15.769 2°54.296 3.1 280 12.2 101230 40
2011-06-20 07:08:34 51°15.79 2°54.294 2.5 339 12.2 101230 40
2011-06-20 07:08:40 51°15.812 2°54.293 3 284 12.2 101240 42
2011-06-20 07:08:44 51°15.826 2°54.291 3.2 336 12.2 101240 43
2011-06-20 07:08:49 51°15.844 2°54.289 2.3 285 12.2 101240 43
2011-06-20 07:08:55 51°15.865 2°54.285 1.3 337 12.2 101240 43
2011-06-20 07:08:59 51°15.879 2°54.283 1.2 283 12.2 101230 42
2011-06-20 07:09:04 51°15.897 2°54.279 0.9 340 12.2 101230 43
2011-06-20 07:09:09 51°15.914 2°54.277 2.1 280 12.2 101230 43
2011-06-20 07:09:15 51°15.934 2°54.273 1.1 344 12.2 101230 43
2011-06-20 07:09:19 51°15.948 2°54.271 1.4 348 12.2 101240 44
2011-06-20 07:09:24 51°15.964 2°54.269 1.6 353 12.2 101240 44
2011-06-20 07:09:29 51°15.98 2°54.267 1.9 284 12.2 101240 41
2011-06-20 07:09:35 51°15.997 2°54.267 0.2 348 12.2 101240 41
2011-06-20 07:09:39 51°16.009 2°54.267 0.1 354 12.2 101240 44
2011-06-20 07:09:44 51°16.022 2°54.268 -999 360 12.2 101240 44
2011-06-20 07:09:49 51°16.035 2°54.269 0.1 360 12.3 101230 44
2011-06-20 07:09:55 51°16.049 2°54.271 0.1 2 12.3 101230 44
2011-06-20 07:09:59 51°16.058 2°54.273 -999 5 12.2 101230 43
2011-06-20 07:10:04 51°16.069 2°54.275 -999 6 12.2 101230 43
2011-06-20 07:10:09 51°16.08 2°54.278 0.1 14 12.2 101240 42
2011-06-20 07:10:14 51°16.089 2°54.281 0.1 22 12.2 101240 42
2011-06-20 07:10:20 51°16.101 2°54.284 0.1 19 12.2 101230 43
2011-06-20 07:10:24 51°16.108 2°54.287 -999 17 12.2 101230 43
2011-06-20 07:10:28 51°16.115 2°54.289 -999 19 12.2 101230 42
2011-06-20 07:10:34 51°16.125 2°54.292 -999 19 12.2 101230 42
2011-06-20 07:10:40 51°16.135 2°54.295 -999 16 12.2 101240 42
2011-06-20 07:10:44 51°16.141 2°54.297 -999 19 12.2 101240 42
2011-06-20 07:10:48 51°16.147 2°54.299 -999 25 12.2 101230 42
2011-06-20 07:10:54 51°16.155 2°54.302 -999 25 12.2 101230 42
2011-06-20 07:10:59 51°16.162 2°54.304 -999 23 12.2 101230 42
2011-06-20 07:11:04 51°16.169 2°54.306 -999 25 12.2 101230 42
2011-06-20 07:11:08 51°16.174 2°54.307 -999 25 12.2 101230 41
2011-06-20 07:11:14 51°16.182 2°54.308 0.1 19 12.2 101230 41
2011-06-20 07:11:20 51°16.189 2°54.309 0.1 21 12.2 101220 42
2011-06-20 07:11:24 51°16.193 2°54.31 0.1 25 12.2 101220 42
2011-06-20 07:11:28 51°16.198 2°54.31 -999 27 12.2 101230 43
2011-06-20 07:11:34 51°16.204 2°54.311 -999 34 12.2 101230 43
2011-06-20 07:11:40 51°16.211 2°54.311 -999 31 12.2 101220 43
2011-06-20 07:11:44 51°16.215 2°54.312 -999 32 12.2 101220 43
2011-06-20 07:11:48 51°16.219 2°54.311 -999 33 12.2 101230 43
2011-06-20 07:11:54 51°16.224 2°54.311 -999 33 12.2 101230 43
2011-06-20 07:12:00 51°16.229 2°54.311 -999 35 12.2 101230 43
2011-06-20 07:12:04 51°16.233 2°54.31 -999 35 12.2 101230 43
2011-06-20 07:12:10 51°16.238 2°54.309 -999 39 12.3 101220 43
2011-06-20 07:12:15 51°16.241 2°54.308 -999 41 12.3 101220 43
2011-06-20 07:12:20 51°16.245 2°54.306 -999 43 12.2 101230 43
2011-06-20 07:12:24 51°16.247 2°54.305 -999 35 12.2 101230 43
2011-06-20 07:12:28 51°16.249 2°54.304 -999 78 12.3 101220 43
2011-06-20 07:12:35 51°16.252 2°54.302 -999 35 12.3 101220 43
2011-06-20 07:12:40 51°16.253 2°54.3 -999 78 12.3 101230 43
2011-06-20 07:12:44 51°16.254 2°54.298 -999 35 12.3 101230 43
2011-06-20 07:12:48 51°16.254 2°54.296 -999 78 12.2 101230 42
2011-06-20 07:12:54 51°16.255 2°54.295 -999 35 12.2 101230 42
2011-06-20 07:13:00 51°16.255 2°54.293 -999 78 12.2 101230 42
2011-06-20 07:13:04 51°16.255 2°54.293 -999 35 12.2 101230 42
2011-06-20 07:13:08 51°16.255 2°54.292 -999 78 12.2 101230 42
2011-06-20 07:13:14 51°16.255 2°54.291 -999 35 12.2 101230 42
2011-06-20 07:13:19 51°16.254 2°54.29 -999 78 12.2 101220 42
2011-06-20 07:13:24 51°16.254 2°54.29 -999 35 12.2 101220 42
2011-06-20 07:13:28 51°16.254 2°54.289 -999 78 12.2 101230 43
2011-06-20 07:13:34 51°16.253 2°54.288 -999 35 12.2 101230 43
2011-06-20 07:13:40 51°16.253 2°54.287 -999 78 12.3 101230 43
2011-06-20 07:13:44 51°16.253 2°54.287 -999 35 12.3 101230 43
2011-06-20 07:13:49 51°16.252 2°54.286 -999 78 12.4 101230 41
2011-06-20 07:13:54 51°16.252 2°54.285 -999 35 12.5 101230 43
2011-06-20 07:14:00 51°16.252 2°54.285 -999 78 12.5 101230 43
2011-06-20 07:14:04 51°16.252 2°54.285 -999 35 12.5 101230 43
2011-06-20 07:14:10 51°16.252 2°54.284 -999 78 12.5 101230 43
2011-06-20 07:14:15 51°16.251 2°54.282 -999 35 12.5 101230 43
2011-06-20 07:14:20 51°16.251 2°54.282 -999 78 12.5 101230 41
2011-06-20 07:14:24 51°16.251 2°54.281 -999 35 12.5 101230 41
2011-06-20 07:14:29 51°16.251 2°54.28 -999 78 12.5 101230 43
2011-06-20 07:14:35 51°16.25 2°54.279 -999 35 12.5 101230 43
2011-06-20 07:14:40 51°16.25 2°54.277 -999 78 12.5 101230 43
2011-06-20 07:14:44 51°16.25 2°54.276 -999 35 12.6 101230 43
2011-06-20 07:14:49 51°16.25 2°54.275 -999 78 12.6 101230 43
2011-06-20 07:14:55 51°16.249 2°54.273 -999 35 12.6 101230 43
2011-06-20 07:15:00 51°16.249 2°54.272 -999 78 12.6 101230 43
2011-06-20 07:15:04 51°16.249 2°54.272 -999 35 12.6 101230 43
2011-06-20 07:15:08 51°16.249 2°54.271 -999 78 12.6 101230 43
2011-06-20 07:15:14 51°16.249 2°54.27 -999 35 12.6 101230 43
2011-06-20 07:15:20 51°16.249 2°54.268 -999 78 12.6 101230 43
2011-06-20 07:15:24 51°16.248 2°54.267 -999 35 12.6 101230 43
2011-06-20 07:15:29 51°16.248 2°54.266 -999 78 12.6 101230 43
2011-06-20 07:15:35 51°16.248 2°54.264 -999 35 12.6 101230 43
2011-06-20 07:15:39 51°16.248 2°54.263 -999 78 12.6 101230 43
2011-06-20 07:15:44 51°16.248 2°54.262 -999 35 12.6 101230 43
2011-06-20 07:15:49 51°16.248 2°54.261 -999 78 12.6 101230 43
2011-06-20 07:15:55 51°16.248 2°54.261 -999 35 12.6 101230 43
2011-06-20 07:15:59 51°16.248 2°54.26 -999 78 12.6 101230 43
2011-06-20 07:16:04 51°16.248 2°54.259 -999 35 12.6 101230 43
2011-06-20 07:16:09 51°16.248 2°54.258 -999 78 12.6 101230 43
2011-06-20 07:16:15 51°16.248 2°54.257 -999 35 12.6 101230 43
2011-06-20 07:16:19 51°16.248 2°54.256 -999 78 12.5 101230 43
2011-06-20 07:16:24 51°16.248 2°54.255 -999 35 12.5 101230 43
2011-06-20 07:16:29 51°16.248 2°54.254 -999 78 12.5 101230 41
2011-06-20 07:16:35 51°16.248 2°54.252 -999 35 12.5 101230 41
2011-06-20 07:16:39 51°16.248 2°54.251 -999 78 12.5 101230 43
2011-06-20 07:16:44 51°16.248 2°54.25 -999 35 12.5 101230 43
2011-06-20 07:16:49 51°16.248 2°54.249 -999 78 12.5 101230 43
2011-06-20 07:16:55 51°16.248 2°54.247 -999 35 12.5 101230 43
2011-06-20 07:16:59 51°16.248 2°54.246 -999 78 12.5 101230 41
2011-06-20 07:17:04 51°16.249 2°54.245 -999 35 12.5 101230 43
2011-06-20 07:17:09 51°16.249 2°54.244 -999 78 12.5 101230 43
2011-06-20 07:17:14 51°16.249 2°54.243 -999 35 12.5 101230 43
2011-06-20 07:17:20 51°16.249 2°54.241 -999 78 12.4 101230 43
2011-06-20 07:17:24 51°16.25 2°54.24 -999 45 12.5 101230 43
2011-06-20 07:17:29 51°16.25 2°54.238 -999 44 12.5 101230 43
2011-06-20 07:17:35 51°16.25 2°54.237 -999 35 12.5 101230 43
2011-06-20 07:17:39 51°16.25 2°54.235 -999 43 12.4 101220 43
2011-06-20 07:17:44 51°16.25 2°54.234 -999 43 12.4 101230 43
2011-06-20 07:17:49 51°16.25 2°54.233 -999 44 12.4 101230 43
2011-06-20 07:17:55 51°16.251 2°54.231 -999 42 12.4 101230 43
2011-06-20 07:17:59 51°16.251 2°54.23 -999 43 12.4 101230 43
2011-06-20 07:18:04 51°16.251 2°54.229 -999 45 12.4 101230 43
2011-06-20 07:18:09 51°16.251 2°54.228 -999 41 12.4 101230 43
2011-06-20 07:18:15 51°16.251 2°54.227 -999 43 12.4 101230 43
2011-06-20 07:18:19 51°16.251 2°54.226 -999 41 12.4 101220 43
2011-06-20 07:18:24 51°16.251 2°54.225 -999 43 12.4 101220 43
2011-06-20 07:18:29 51°16.251 2°54.223 -999 42 12.4 101220 43
2011-06-20 07:18:35 51°16.252 2°54.222 -999 42 12.4 101220 43
2011-06-20 07:18:39 51°16.252 2°54.221 -999 40 12.4 101230 42
2011-06-20 07:18:44 51°16.252 2°54.22 -999 40 12.4 101230 42
2011-06-20 07:18:49 51°16.252 2°54.219 -999 40 12.4 101230 43
2011-06-20 07:18:55 51°16.253 2°54.217 -999 39 12.4 101230 43
2011-06-20 07:18:59 51°16.253 2°54.216 -999 38 12.4 101230 43
2011-06-20 07:19:04 51°16.253 2°54.215 -999 39 12.4 101230 43
2011-06-20 07:19:09 51°16.253 2°54.213 -999 34 12.4 101230 41
2011-06-20 07:19:15 51°16.254 2°54.212 -999 37 12.4 101220 43
2011-06-20 07:19:20 51°16.254 2°54.211 2.8 35 12.4 101220 43
2011-06-20 07:19:24 51°16.254 2°54.21 2.7 34 12.4 101230 43
2011-06-20 07:19:29 51°16.254 2°54.209 2.8 34 12.4 101230 43
2011-06-20 07:19:35 51°16.254 2°54.208 3.3 36 12.4 101230 43
2011-06-20 07:19:40 51°16.255 2°54.207 3.2 33 12.4 101230 41
2011-06-20 07:19:44 51°16.255 2°54.206 2.5 33 12.4 101230 43
2011-06-20 07:19:49 51°16.255 2°54.205 3.2 34 12.4 101230 43
2011-06-20 07:19:55 51°16.256 2°54.204 3.4 34 12.4 101230 43
2011-06-20 07:19:59 51°16.256 2°54.203 3.4 30 12.4 101220 44
2011-06-20 07:20:04 51°16.256 2°54.202 2.7 29 12.4 101230 43
2011-06-20 07:20:09 51°16.256 2°54.2 3.7 30 12.4 101230 43
2011-06-20 07:20:15 51°16.256 2°54.199 3.7 30 12.4 101230 43
2011-06-20 07:20:19 51°16.257 2°54.198 3.6 24 12.4 101230 44
2011-06-20 07:20:24 51°16.257 2°54.197 3.1 27 12.4 101230 44
2011-06-20 07:20:29 51°16.257 2°54.197 2.8 26 12.4 101230 44
2011-06-20 07:20:35 51°16.257 2°54.195 3.4 26 12.4 101230 44
2011-06-20 07:20:39 51°16.257 2°54.194 3.6 25 12.5 101220 44
2011-06-20 07:20:44 51°16.257 2°54.193 3.2 25 12.5 101220 44
2011-06-20 07:20:49 51°16.258 2°54.192 3.4 22 12.5 101220 43
2011-06-20 07:20:55 51°16.258 2°54.19 3.1 25 12.5 101220 43
2011-06-20 07:20:59 51°16.258 2°54.189 3.2 23 12.5 101230 43
2011-06-20 07:21:04 51°16.258 2°54.188 3.3 22 12.5 101230 43
2011-06-20 07:21:09 51°16.258 2°54.187 3 21 12.5 101220 44
2011-06-20 07:21:15 51°16.259 2°54.186 3.8 21 12.5 101220 44
2011-06-20 07:21:19 51°16.259 2°54.184 3.1 21 12.5 101220 43
2011-06-20 07:21:24 51°16.259 2°54.183 3.2 22 12.5 101220 43
2011-06-20 07:21:29 51°16.259 2°54.182 2.9 22 12.5 101230 44
2011-06-20 07:21:34 51°16.259 2°54.181 2.4 22 12.5 101230 44
2011-06-20 07:21:40 51°16.26 2°54.179 0.2 24 12.5 101230 42
2011-06-20 07:21:44 51°16.26 2°54.178 0.1 22 12.5 101230 42
2011-06-20 07:21:49 51°16.26 2°54.177 -999 23 12.5 101220 42
2011-06-20 07:21:54 51°16.26 2°54.176 -999 22 12.5 101220 42
2011-06-20 07:22:00 51°16.26 2°54.175 -999 21 12.4 101230 43
2011-06-20 07:22:04 51°16.261 2°54.174 -999 21 12.4 101230 43
2011-06-20 07:22:08 51°16.261 2°54.173 -999 24 12.4 101230 42
2011-06-20 07:22:14 51°16.261 2°54.171 -999 18 12.4 101230 42
2011-06-20 07:22:19 51°16.261 2°54.171 -999 17 12.4 101230 41
2011-06-20 07:22:24 51°16.262 2°54.17 -999 14 12.4 101230 41
2011-06-20 07:22:28 51°16.263 2°54.171 -999 16 12.4 101230 43
2011-06-20 07:22:34 51°16.265 2°54.172 -999 19 12.4 101230 43
2011-06-20 07:22:40 51°16.267 2°54.174 -999 20 12.4 101230 43
2011-06-20 07:22:44 51°16.269 2°54.176 -999 22 12.4 101230 43
2011-06-20 07:22:48 51°16.272 2°54.178 0.4 24 12.4 101230 43
2011-06-20 07:22:54 51°16.277 2°54.181 0.1 24 12.4 101220 43
2011-06-20 07:23:00 51°16.282 2°54.183 0.1 31 12.4 101220 43
2011-06-20 07:23:04 51°16.287 2°54.184 -999 34 12.4 101220 43
2011-06-20 07:23:08 51°16.291 2°54.185 -999 36 12.4 101230 43
2011-06-20 07:23:14 51°16.299 2°54.184 -999 41 12.4 101230 43
2011-06-20 07:23:20 51°16.307 2°54.182 -999 78 12.4 101230 43
2011-06-20 07:23:24 51°16.312 2°54.179 -999 43 12.4 101230 43
2011-06-20 07:23:28 51°16.318 2°54.176 -999 78 12.4 101230 43
2011-06-20 07:23:34 51°16.326 2°54.168 -999 35 12.3 101230 43
2011-06-20 07:23:40 51°16.335 2°54.16 -999 281 12.3 101230 43
2011-06-20 07:23:44 51°16.341 2°54.153 -999 243 12.3 101230 42
2011-06-20 07:23:49 51°16.348 2°54.143 -999 24 12.3 101230 42
2011-06-20 07:23:54 51°16.355 2°54.133 -999 35 12.3 101230 42
2011-06-20 07:24:00 51°16.365 2°54.119 -999 282 12.3 101230 43
2011-06-20 07:24:04 51°16.371 2°54.109 -999 324 12.3 101240 43
2011-06-20 07:24:09 51°16.38 2°54.097 -999 282 12.3 101240 43
2011-06-20 07:24:15 51°16.392 2°54.081 0.1 317 12.3 101240 43
2011-06-20 07:24:20 51°16.402 2°54.068 0.1 282 12.3 101230 43
2011-06-20 07:24:24 51°16.41 2°54.057 0.1 321 12.3 101230 41
2011-06-20 07:24:29 51°16.42 2°54.043 -999 283 12.3 101230 41
2011-06-20 07:24:35 51°16.433 2°54.026 -999 35 12.3 101230 41
2011-06-20 07:24:39 51°16.442 2°54.015 -999 282 12.3 101230 43
2011-06-20 07:24:44 51°16.453 2°54 -999 316 12.4 101230 43
2011-06-20 07:24:49 51°16.465 2°53.985 -999 282 12.4 101230 43
2011-06-20 07:24:55 51°16.478 2°53.967 -999 322 12.4 101230 43
2011-06-20 07:24:59 51°16.488 2°53.956 -999 282 12.3 101240 41
2011-06-20 07:25:04 51°16.499 2°53.941 -999 319 12.3 101230 43
2011-06-20 07:25:09 51°16.511 2°53.926 -999 282 12.3 101230 43
2011-06-20 07:25:15 51°16.525 2°53.908 -999 326 12.3 101230 43
2011-06-20 07:25:19 51°16.535 2°53.896 -999 282 12.4 101230 43
2011-06-20 07:25:24 51°16.547 2°53.881 -999 328 12.4 101230 43
2011-06-20 07:25:29 51°16.56 2°53.865 -999 282 12.4 101240 43
2011-06-20 07:25:35 51°16.575 2°53.844 -999 330 12.4 101230 43
2011-06-20 07:25:39 51°16.585 2°53.831 -999 282 12.4 101230 43
2011-06-20 07:25:44 51°16.597 2°53.813 -999 326 12.4 101230 43
2011-06-20 07:25:49 51°16.61 2°53.794 -999 -999 12.3 101230 43
2011-06-20 07:25:55 51°16.625 2°53.771 -999 324 12.3 101240 43
2011-06-20 07:26:00 51°16.638 2°53.751 -999 282 12.3 101240 43
2011-06-20 07:26:04 51°16.648 2°53.735 -999 325 12.3 101230 43
2011-06-20 07:26:09 51°16.66 2°53.714 -999 282 12.3 101230 43
2011-06-20 07:26:15 51°16.675 2°53.689 -999 322 12.3 101230 43
2011-06-20 07:26:20 51°16.687 2°53.668 -999 282 12.3 101230 43
2011-06-20 07:26:24 51°16.697 2°53.651 -999 318 12.3 101240 43
2011-06-20 07:26:29 51°16.709 2°53.629 -999 282 12.3 101240 43
2011-06-20 07:26:35 51°16.724 2°53.602 -999 35 12.3 101240 43
2011-06-20 07:26:39 51°16.733 2°53.584 -999 282 12.3 101230 43
2011-06-20 07:26:44 51°16.745 2°53.562 -999 321 12.4 101230 43
2011-06-20 07:26:49 51°16.757 2°53.54 -999 282 12.4 101230 43
2011-06-20 07:26:55 51°16.772 2°53.513 -999 317 12.4 101230 43
2011-06-20 07:26:59 51°16.781 2°53.495 -999 282 12.4 101230 43
2011-06-20 07:27:04 51°16.794 2°53.474 -999 35 12.3 101230 41
2011-06-20 07:27:09 51°16.806 2°53.452 -999 282 12.3 101230 41
2011-06-20 07:27:15 51°16.82 2°53.426 -999 318 12.3 101230 41
2011-06-20 07:27:19 51°16.83 2°53.409 -999 282 12.4 101230 43
2011-06-20 07:27:24 51°16.843 2°53.388 -999 318 12.4 101230 43
2011-06-20 07:27:29 51°16.856 2°53.367 -999 282 12.3 101230 43
2011-06-20 07:27:35 51°16.872 2°53.343 -999 320 12.3 101230 43
2011-06-20 07:27:39 51°16.882 2°53.327 -999 283 12.3 101230 41
2011-06-20 07:27:44 51°16.895 2°53.307 -999 323 12.3 101230 41
2011-06-20 07:27:49 51°16.908 2°53.287 -999 282 12.3 101230 43
2011-06-20 07:27:55 51°16.921 2°53.263 -999 319 12.3 101230 43
2011-06-20 07:27:59 51°16.931 2°53.246 0.1 287 12.3 101230 43
2011-06-20 07:28:04 51°16.942 2°53.224 0.1 36 12.3 101230 43
2011-06-20 07:28:09 51°16.953 2°53.202 0.1 282 12.3 101240 43
2011-06-20 07:28:15 51°16.965 2°53.175 -999 35 12.4 101240 43
2011-06-20 07:28:20 51°16.975 2°53.151 -999 282 12.4 101240 43
2011-06-20 07:28:24 51°16.983 2°53.132 -999 35 12.3 101230 43
2011-06-20 07:28:29 51°16.992 2°53.108 -999 283 12.3 101230 43
2011-06-20 07:28:35 51°17.004 2°53.079 -999 35 12.3 101230 43
2011-06-20 07:28:40 51°17.013 2°53.055 0.1 283 12.3 101230 43
2011-06-20 07:28:44 51°17.021 2°53.035 0.1 318 12.3 101230 43
2011-06-20 07:28:49 51°17.031 2°53.01 0.1 318 12.3 101230 43
2011-06-20 07:28:55 51°17.042 2°52.981 -999 316 12.3 101230 43
2011-06-20 07:28:59 51°17.049 2°52.961 -999 282 12.3 101230 43
2011-06-20 07:29:04 51°17.059 2°52.937 3.2 319 12.4 101230 43
2011-06-20 07:29:09 51°17.069 2°52.911 3.5 285 12.4 101230 43
2011-06-20 07:29:15 51°17.081 2°52.881 3 316 12.4 101230 43
2011-06-20 07:29:19 51°17.089 2°52.861 2.9 287 12.4 101230 43
2011-06-20 07:29:24 51°17.099 2°52.837 2.4 316 12.4 101230 44
2011-06-20 07:29:29 51°17.11 2°52.813 0.3 282 12.4 101230 44
2011-06-20 07:29:35 51°17.123 2°52.784 0.1 319 12.4 101230 44
2011-06-20 07:29:39 51°17.132 2°52.765 0.1 282 12.4 101230 42
2011-06-20 07:29:44 51°17.143 2°52.742 -999 323 12.4 101230 42
2011-06-20 07:29:49 51°17.155 2°52.719 -999 282 12.3 101230 41
2011-06-20 07:29:55 51°17.169 2°52.693 -999 328 12.3 101230 41
2011-06-20 07:29:59 51°17.179 2°52.676 -999 282 12.4 101230 43
2011-06-20 07:30:04 51°17.191 2°52.655 -999 329 12.4 101230 43
2011-06-20 07:30:09 51°17.204 2°52.634 -999 282 12.4 101230 43
2011-06-20 07:30:15 51°17.219 2°52.608 -999 325 12.4 101230 41
2011-06-20 07:30:20 51°17.231 2°52.587 -999 282 12.4 101230 41
2011-06-20 07:30:24 51°17.241 2°52.571 -999 323 12.4 101230 43
2011-06-20 07:30:29 51°17.254 2°52.549 -999 282 12.4 101230 43
2011-06-20 07:30:35 51°17.269 2°52.524 -999 325 12.4 101230 43
2011-06-20 07:30:40 51°17.281 2°52.502 -999 282 12.4 101230 43
2011-06-20 07:30:44 51°17.291 2°52.485 -999 325 12.3 101230 43
2011-06-20 07:30:49 51°17.303 2°52.464 -999 324 12.3 101230 43
2011-06-20 07:30:55 51°17.318 2°52.438 -999 324 12.3 101230 43
2011-06-20 07:31:00 51°17.331 2°52.417 -999 282 12.3 101230 43
2011-06-20 07:31:04 51°17.341 2°52.401 -999 325 12.3 101230 43
2011-06-20 07:31:09 51°17.354 2°52.38 -999 282 12.3 101230 43
2011-06-20 07:31:15 51°17.37 2°52.356 -999 321 12.3 101230 43
2011-06-20 07:31:20 51°17.383 2°52.337 -999 282 12.3 101230 43
2011-06-20 07:31:24 51°17.394 2°52.322 -999 327 12.3 101230 43
2011-06-20 07:31:29 51°17.408 2°52.302 -999 282 12.3 101230 43
2011-06-20 07:31:35 51°17.425 2°52.28 -999 324 12.3 101230 43
2011-06-20 07:31:39 51°17.436 2°52.266 -999 282 12.3 101230 43
2011-06-20 07:31:44 51°17.451 2°52.248 -999 330 12.4 101230 43
2011-06-20 07:31:49 51°17.465 2°52.231 -999 282 12.4 101230 43
2011-06-20 07:31:54 51°17.48 2°52.213 -999 329 12.4 101230 43
2011-06-20 07:31:59 51°17.495 2°52.196 -999 282 12.4 101230 43
2011-06-20 07:32:04 51°17.509 2°52.179 -999 332 12.4 101230 43
2011-06-20 07:32:09 51°17.524 2°52.161 1.2 281 12.4 101230 43
2011-06-20 07:32:14 51°17.538 2°52.143 2.6 328 12.4 101230 43
2011-06-20 07:32:20 51°17.556 2°52.122 2 277 12.4 101220 43
2011-06-20 07:32:24 51°17.567 2°52.107 1.6 325 12.4 101220 43
2011-06-20 07:32:29 51°17.581 2°52.089 1.8 286 12.4 101230 40
2011-06-20 07:32:34 51°17.595 2°52.07 0.3 325 12.4 101230 42
2011-06-20 07:32:40 51°17.611 2°52.047 0.1 282 12.4 101230 42
2011-06-20 07:32:44 51°17.622 2°52.031 0.1 318 12.4 101230 41
2011-06-20 07:32:49 51°17.635 2°52.011 0.1 320 12.4 101230 41
2011-06-20 07:32:55 51°17.651 2°51.988 -999 322 12.5 101230 41
2011-06-20 07:33:00 51°17.665 2°51.969 -999 282 12.5 101230 41
2011-06-20 07:33:04 51°17.675 2°51.953 -999 322 12.5 101230 43
2011-06-20 07:33:09 51°17.689 2°51.934 -999 282 12.5 101230 43
2011-06-20 07:33:15 51°17.706 2°51.912 -999 328 12.5 101230 43
2011-06-20 07:33:20 51°17.72 2°51.893 -999 282 12.5 101230 43
2011-06-20 07:33:24 51°17.731 2°51.879 -999 326 12.4 101220 43
2011-06-20 07:33:29 51°17.745 2°51.861 -999 282 12.4 101220 43
2011-06-20 07:33:35 51°17.763 2°51.84 -999 330 12.4 101220 43
2011-06-20 07:33:40 51°17.777 2°51.823 -999 282 12.4 101230 43
2011-06-20 07:33:44 51°17.789 2°51.809 -999 327 12.4 101230 43
2011-06-20 07:33:49 51°17.803 2°51.791 -999 -999 12.4 101230 43
2011-06-20 07:33:54 51°17.818 2°51.774 -999 324 12.4 101230 43
2011-06-20 07:33:59 51°17.832 2°51.756 -999 282 12.4 101220 43
2011-06-20 07:34:04 51°17.847 2°51.738 -999 326 12.4 101230 43
2011-06-20 07:34:09 51°17.861 2°51.72 -999 282 12.4 101230 43
2011-06-20 07:34:15 51°17.878 2°51.698 -999 327 12.4 101230 43
2011-06-20 07:34:20 51°17.892 2°51.679 -999 282 12.4 101220 43
2011-06-20 07:34:24 51°17.903 2°51.663 -999 319 12.4 101220 43
2011-06-20 07:34:29 51°17.916 2°51.643 -999 282 12.4 101230 43
2011-06-20 07:34:35 51°17.932 2°51.62 -999 322 12.4 101230 43
2011-06-20 07:34:39 51°17.943 2°51.603 -999 282 12.4 101220 43
2011-06-20 07:34:44 51°17.956 2°51.583 -999 321 12.4 101220 43
2011-06-20 07:34:49 51°17.97 2°51.563 -999 282 12.4 101230 43
2011-06-20 07:34:54 51°17.983 2°51.543 -999 325 12.4 101230 43
2011-06-20 07:35:00 51°18 2°51.519 -999 282 12.4 101230 43
2011-06-20 07:35:04 51°18.011 2°51.503 -999 324 12.4 101230 43
2011-06-20 07:35:09 51°18.024 2°51.484 -999 282 12.4 101230 41
2011-06-20 07:35:14 51°18.039 2°51.465 0.1 322 12.4 101230 43
2011-06-20 07:35:20 51°18.056 2°51.442 1.2 285 12.4 101230 43
2011-06-20 07:35:24 51°18.067 2°51.428 1.6 322 12.4 101230 43
2011-06-20 07:35:29 51°18.082 2°51.409 0.9 279 12.4 101230 43
2011-06-20 07:35:35 51°18.1 2°51.388 1.1 327 12.4 101230 43
2011-06-20 07:35:40 51°18.114 2°51.37 0.2 282 12.4 101220 42
2011-06-20 07:35:44 51°18.126 2°51.356 0.1 324 12.4 101230 42
2011-06-20 07:35:49 51°18.141 2°51.338 0.1 323 12.4 101230 42
2011-06-20 07:35:55 51°18.158 2°51.316 -999 321 12.4 101230 42
2011-06-20 07:35:59 51°18.169 2°51.302 2.1 283 12.4 101230 43
2011-06-20 07:36:04 51°18.184 2°51.283 0.7 323 12.4 101230 43
2011-06-20 07:36:09 51°18.198 2°51.265 0.1 282 12.4 101230 43
2011-06-20 07:36:15 51°18.215 2°51.244 0.1 329 12.4 101230 43
2011-06-20 07:36:19 51°18.225 2°51.23 0.1 282 12.4 101220 42
2011-06-20 07:36:24 51°18.239 2°51.213 0.1 326 12.4 101220 42
2011-06-20 07:36:29 51°18.252 2°51.196 1.3 284 12.4 101230 45
2011-06-20 07:36:35 51°18.268 2°51.177 1.4 324 12.4 101230 45
2011-06-20 07:36:39 51°18.279 2°51.164 0.2 282 12.4 101230 43
2011-06-20 07:36:44 51°18.292 2°51.148 0.1 319 12.4 101230 43
2011-06-20 07:36:49 51°18.305 2°51.133 0.1 282 12.4 101230 44
2011-06-20 07:36:54 51°18.318 2°51.118 -999 326 12.5 101230 43
2011-06-20 07:36:59 51°18.331 2°51.104 -999 282 12.5 101230 43
2011-06-20 07:37:04 51°18.343 2°51.089 -999 322 12.5 101230 43
2011-06-20 07:37:09 51°18.355 2°51.075 -999 282 12.5 101230 43
2011-06-20 07:37:15 51°18.37 2°51.058 -999 323 12.5 101230 43
2011-06-20 07:37:20 51°18.381 2°51.043 -999 282 12.5 101230 43
2011-06-20 07:37:24 51°18.39 2°51.032 -999 35 12.5 101230 43
2011-06-20 07:37:29 51°18.401 2°51.017 -999 282 12.5 101230 43
2011-06-20 07:37:34 51°18.412 2°51.003 -999 35 12.5 101230 43
2011-06-20 07:37:40 51°18.424 2°50.986 -999 282 12.5 101220 43
2011-06-20 07:37:44 51°18.431 2°50.976 -999 240 12.5 101230 41
2011-06-20 07:37:49 51°18.442 2°50.967 -999 23 12.5 101230 41
2011-06-20 07:37:55 51°18.453 2°50.959 -999 240 12.5 101230 41
2011-06-20 07:38:00 51°18.463 2°50.955 -999 282 12.5 101230 43
2011-06-20 07:38:04 51°18.47 2°50.953 -999 240 12.5 101230 43
2011-06-20 07:38:09 51°18.478 2°50.952 0.1 18 12.5 101230 43
2011-06-20 07:38:15 51°18.487 2°50.952 0.1 20 12.5 101230 43
2011-06-20 07:38:19 51°18.492 2°50.953 0.1 16 12.5 101220 41
2011-06-20 07:38:24 51°18.499 2°50.955 1.3 21 12.5 101220 42
2011-06-20 07:38:29 51°18.505 2°50.957 2 19 12.5 101220 42
2011-06-20 07:38:35 51°18.511 2°50.96 1.1 17 12.5 101220 42
2011-06-20 07:38:39 51°18.515 2°50.962 2.1 16 12.5 101220 43
2011-06-20 07:38:44 51°18.519 2°50.965 2.6 18 12.5 101220 43
2011-06-20 07:38:49 51°18.524 2°50.967 3.3 17 12.6 101220 42
2011-06-20 07:38:55 51°18.527 2°50.97 3.4 18 12.6 101220 42
2011-06-20 07:38:59 51°18.529 2°50.971 3.2 23 12.6 101220 44
2011-06-20 07:39:04 51°18.531 2°50.972 3 20 12.6 101220 44
2011-06-20 07:39:09 51°18.532 2°50.972 3.2 22 12.6 101220 44
2011-06-20 07:39:15 51°18.533 2°50.971 4.4 23 12.6 101220 44
2011-06-20 07:39:20 51°18.533 2°50.97 4.2 25 12.6 101220 44
2011-06-20 07:39:24 51°18.533 2°50.969 2.1 20 12.6 101220 44
2011-06-20 07:39:29 51°18.534 2°50.968 2.7 23 12.6 101220 44
2011-06-20 07:39:35 51°18.534 2°50.966 3.1 22 12.6 101220 43
2011-06-20 07:39:40 51°18.535 2°50.965 2.9 26 12.6 101220 43
2011-06-20 07:39:44 51°18.535 2°50.964 3.7 26 12.5 101220 44
2011-06-20 07:39:49 51°18.535 2°50.963 4.2 27 12.5 101220 44
2011-06-20 07:39:54 51°18.536 2°50.961 3.7 23 12.5 101220 44
2011-06-20 07:40:00 51°18.536 2°50.96 4 23 12.5 101220 44
2011-06-20 07:40:04 51°18.537 2°50.958 3.3 24 12.5 101220 44
2011-06-20 07:40:09 51°18.537 2°50.957 3.4 21 12.5 101220 43
2011-06-20 07:40:14 51°18.537 2°50.955 3.8 22 12.5 101220 43
2011-06-20 07:40:19 51°18.537 2°50.954 2.2 22 12.5 101220 42
2011-06-20 07:40:24 51°18.538 2°50.953 2.6 22 12.5 101220 42
2011-06-20 07:40:29 51°18.538 2°50.951 3 23 12.5 101220 43
2011-06-20 07:40:34 51°18.539 2°50.949 2.9 23 12.5 101220 42
2011-06-20 07:40:39 51°18.539 2°50.948 2.4 21 12.5 101220 42
2011-06-20 07:40:44 51°18.54 2°50.946 2.3 23 12.5 101220 42
2011-06-20 07:40:49 51°18.54 2°50.945 2.5 25 12.5 101220 42
2011-06-20 07:40:55 51°18.54 2°50.943 3.5 18 12.5 101220 42
2011-06-20 07:40:59 51°18.54 2°50.942 4.2 22 12.4 101210 42
2011-06-20 07:41:04 51°18.541 2°50.94 4 24 12.4 101210 42
2011-06-20 07:41:09 51°18.541 2°50.939 3.4 25 12.4 101220 44
2011-06-20 07:41:15 51°18.541 2°50.937 3.5 22 12.4 101220 44
2011-06-20 07:41:19 51°18.542 2°50.936 3 23 12.4 101220 43
2011-06-20 07:41:24 51°18.542 2°50.935 3.1 23 12.4 101220 43
2011-06-20 07:41:29 51°18.542 2°50.933 3.7 23 12.4 101220 44
2011-06-20 07:41:35 51°18.543 2°50.931 3.8 23 12.4 101220 42
2011-06-20 07:41:40 51°18.543 2°50.93 3.7 25 12.4 101220 42
2011-06-20 07:41:44 51°18.543 2°50.929 4.6 27 12.4 101220 42
2011-06-20 07:41:49 51°18.544 2°50.927 3.6 25 12.4 101220 42
2011-06-20 07:41:54 51°18.544 2°50.926 3.3 26 12.4 101210 43
2011-06-20 07:41:59 51°18.544 2°50.925 4.2 27 12.4 101210 43
2011-06-20 07:42:04 51°18.545 2°50.923 4 24 12.4 101210 43
2011-06-20 07:42:09 51°18.545 2°50.921 3.3 22 12.4 101220 42
2011-06-20 07:42:14 51°18.545 2°50.92 3.6 23 12.4 101220 42
2011-06-20 07:42:20 51°18.545 2°50.918 3.9 24 12.4 101220 42
2011-06-20 07:42:24 51°18.546 2°50.917 3.3 27 12.4 101220 42
2011-06-20 07:42:29 51°18.546 2°50.916 3.6 26 12.4 101220 42
2011-06-20 07:42:34 51°18.546 2°50.914 4 27 12.4 101220 42
2011-06-20 07:42:40 51°18.547 2°50.913 2.6 26 12.4 101220 42
2011-06-20 07:42:44 51°18.547 2°50.912 4.3 25 12.4 101220 42
2011-06-20 07:42:49 51°18.547 2°50.91 3.7 25 12.4 101220 42
2011-06-20 07:42:55 51°18.548 2°50.908 3.5 26 12.4 101220 42
2011-06-20 07:42:59 51°18.548 2°50.907 3.6 25 12.4 101220 42
2011-06-20 07:43:04 51°18.548 2°50.906 3.9 26 12.4 101220 42
2011-06-20 07:43:09 51°18.549 2°50.904 3.9 27 12.5 101220 43
2011-06-20 07:43:15 51°18.549 2°50.902 3.3 25 12.5 101220 43
2011-06-20 07:43:19 51°18.549 2°50.901 3.4 28 12.4 101220 42
2011-06-20 07:43:24 51°18.55 2°50.9 3.7 28 12.4 101220 42
2011-06-20 07:43:29 51°18.55 2°50.898 3.1 27 12.4 101220 43
2011-06-20 07:43:35 51°18.551 2°50.896 4.1 26 12.4 101220 42
2011-06-20 07:43:39 51°18.551 2°50.895 3.6 27 12.4 101220 42
2011-06-20 07:43:44 51°18.551 2°50.894 3.3 25 12.4 101220 42
2011-06-20 07:43:49 51°18.552 2°50.892 3.4 24 12.4 101220 42
2011-06-20 07:43:55 51°18.552 2°50.891 3.7 27 12.4 101220 42
2011-06-20 07:44:00 51°18.552 2°50.889 2.6 26 12.4 101220 42
2011-06-20 07:44:04 51°18.552 2°50.888 2.5 26 12.4 101220 44
2011-06-20 07:44:09 51°18.553 2°50.886 2.4 27 12.4 101220 44
2011-06-20 07:44:15 51°18.553 2°50.885 2.5 25 12.4 101220 43
2011-06-20 07:44:20 51°18.554 2°50.883 2.5 22 12.4 101220 43
2011-06-20 07:44:24 51°18.554 2°50.882 2.2 19 12.4 101220 44
2011-06-20 07:44:29 51°18.554 2°50.88 2.8 27 12.4 101220 44
2011-06-20 07:44:35 51°18.555 2°50.879 3 22 12.4 101220 44
2011-06-20 07:44:40 51°18.556 2°50.878 2.3 22 12.4 101220 42
2011-06-20 07:44:44 51°18.556 2°50.879 2.7 21 12.4 101230 44
2011-06-20 07:44:49 51°18.557 2°50.879 2.6 19 12.4 101230 44
2011-06-20 07:44:54 51°18.559 2°50.881 2.4 11 12.4 101230 44
2011-06-20 07:44:59 51°18.561 2°50.885 2.7 5 12.4 101230 44
2011-06-20 07:45:04 51°18.562 2°50.89 0.5 4 12.4 101230 44
2011-06-20 07:45:09 51°18.565 2°50.897 3.8 -999 12.4 101230 43
2011-06-20 07:45:14 51°18.567 2°50.906 4.5 -999 12.4 101230 43
2011-06-20 07:45:20 51°18.57 2°50.92 4.9 358 12.4 101220 42
2011-06-20 07:45:24 51°18.573 2°50.93 5 358 12.4 101220 42
2011-06-20 07:45:29 51°18.577 2°50.944 5.2 355 12.4 101220 44
2011-06-20 07:45:34 51°18.58 2°50.96 5.1 355 12.4 101220 44
2011-06-20 07:45:40 51°18.586 2°50.98 5.1 354 12.4 101220 44
2011-06-20 07:45:44 51°18.589 2°50.994 5.3 355 12.4 101220 44
2011-06-20 07:45:49 51°18.594 2°51.014 6 279 12.4 101220 43
2011-06-20 07:45:55 51°18.6 2°51.038 8.1 351 12.4 101210 43
2011-06-20 07:45:59 51°18.605 2°51.054 6.2 349 12.4 101210 43
2011-06-20 07:46:04 51°18.611 2°51.076 6.6 351 12.4 101210 43
2011-06-20 07:46:09 51°18.616 2°51.098 6.7 349 12.4 101220 42
2011-06-20 07:46:15 51°18.623 2°51.126 7.3 350 12.4 101220 41
2011-06-20 07:46:20 51°18.629 2°51.15 6.3 350 12.4 101220 41
2011-06-20 07:46:24 51°18.634 2°51.169 6.3 349 12.4 101210 43
2011-06-20 07:46:29 51°18.64 2°51.193 6.3 348 12.4 101210 43
2011-06-20 07:46:35 51°18.647 2°51.222 6.3 347 12.4 101210 42
2011-06-20 07:46:40 51°18.653 2°51.247 7.4 348 12.4 101210 42
2011-06-20 07:46:44 51°18.658 2°51.267 6.6 346 12.4 101210 43
2011-06-20 07:46:49 51°18.664 2°51.292 8.5 348 12.4 101210 43
2011-06-20 07:46:55 51°18.671 2°51.322 7.5 347 12.4 101210 43
2011-06-20 07:47:00 51°18.677 2°51.347 6.8 281 12.4 101210 42
2011-06-20 07:47:04 51°18.682 2°51.367 7.9 349 12.4 101210 44
2011-06-20 07:47:09 51°18.688 2°51.392 7.3 280 12.4 101210 44
2011-06-20 07:47:15 51°18.695 2°51.422 7 345 12.4 101210 44
2011-06-20 07:47:19 51°18.7 2°51.442 7.5 281 12.4 101210 43
2011-06-20 07:47:24 51°18.705 2°51.467 7.9 346 12.4 101210 43
2011-06-20 07:47:29 51°18.71 2°51.493 7.7 278 12.4 101210 43
2011-06-20 07:47:34 51°18.716 2°51.518 7.5 346 12.4 101210 43
2011-06-20 07:47:39 51°18.72 2°51.543 7.8 347 12.4 101220 43
2011-06-20 07:47:44 51°18.725 2°51.569 7.6 346 12.4 101220 43
2011-06-20 07:47:48 51°18.729 2°51.59 6.8 346 12.4 101210 43
2011-06-20 07:47:54 51°18.735 2°51.621 7.1 347 12.4 101210 43
2011-06-20 07:47:59 51°18.739 2°51.646 8.4 345 12.4 101220 43
2011-06-20 07:48:04 51°18.744 2°51.672 8.3 348 12.4 101220 43
2011-06-20 07:48:08 51°18.748 2°51.693 7.4 279 12.4 101220 43
2011-06-20 07:48:14 51°18.753 2°51.724 7.6 348 12.4 101220 43
2011-06-20 07:48:19 51°18.758 2°51.75 7.7 346 12.4 101210 42
2011-06-20 07:48:24 51°18.762 2°51.775 8.9 347 12.4 101210 42
2011-06-20 07:48:28 51°18.765 2°51.796 7.8 284 12.4 101220 43
2011-06-20 07:48:34 51°18.77 2°51.827 7.2 346 12.4 101220 43
2011-06-20 07:48:40 51°18.775 2°51.858 7.4 345 12.4 101210 43
2011-06-20 07:48:44 51°18.779 2°51.879 7.6 344 12.4 101210 43
2011-06-20 07:48:48 51°18.782 2°51.9 7.6 347 12.4 101210 43
2011-06-20 07:48:54 51°18.787 2°51.931 7.4 348 12.4 101210 43
2011-06-20 07:49:00 51°18.793 2°51.961 7.6 281 12.4 101210 42
2011-06-20 07:49:04 51°18.796 2°51.982 6.8 349 12.4 101210 42
2011-06-20 07:49:09 51°18.801 2°52.008 8.8 279 12.4 101210 42
2011-06-20 07:49:14 51°18.805 2°52.034 8.5 350 12.4 101210 42
2011-06-20 07:49:19 51°18.811 2°52.059 8.1 350 12.4 101220 44
2011-06-20 07:49:24 51°18.815 2°52.084 7.2 349 12.4 101220 44
2011-06-20 07:49:29 51°18.821 2°52.109 7.6 351 12.4 101210 43
2011-06-20 07:49:34 51°18.826 2°52.135 6.7 348 12.4 101210 43
2011-06-20 07:49:39 51°18.832 2°52.16 9.4 352 12.5 101210 42
2011-06-20 07:49:44 51°18.838 2°52.185 7.9 351 12.5 101210 42
2011-06-20 07:49:49 51°18.843 2°52.209 7 350 12.4 101210 42
2011-06-20 07:49:55 51°18.849 2°52.239 9 349 12.4 101210 42
2011-06-20 07:49:59 51°18.854 2°52.26 8.2 278 12.4 101210 42
2011-06-20 07:50:04 51°18.859 2°52.285 7.1 349 12.4 101210 42
2011-06-20 07:50:08 51°18.862 2°52.305 8.1 348 12.4 101210 43
2011-06-20 07:50:14 51°18.868 2°52.336 7.8 349 12.4 101210 43
2011-06-20 07:50:20 51°18.872 2°52.367 6.9 347 12.4 101210 42
2011-06-20 07:50:24 51°18.876 2°52.387 9.1 352 12.4 101210 42
2011-06-20 07:50:28 51°18.879 2°52.408 7.8 279 12.4 101210 43
2011-06-20 07:50:34 51°18.884 2°52.439 9.4 349 12.4 101210 43
2011-06-20 07:50:39 51°18.888 2°52.464 7.7 280 12.4 101200 42
2011-06-20 07:50:44 51°18.893 2°52.49 9.4 352 12.4 101200 42
2011-06-20 07:50:48 51°18.896 2°52.511 7.9 350 12.4 101210 43
2011-06-20 07:50:54 51°18.901 2°52.542 7.2 350 12.4 101210 43
2011-06-20 07:51:00 51°18.906 2°52.572 7.5 352 12.3 101210 42
2011-06-20 07:51:04 51°18.91 2°52.592 9 350 12.3 101210 42
2011-06-20 07:51:08 51°18.915 2°52.612 7.9 351 12.3 101210 42
2011-06-20 07:51:14 51°18.92 2°52.643 7.1 350 12.3 101210 42
2011-06-20 07:51:20 51°18.926 2°52.673 8.5 352 12.3 101210 43
2011-06-20 07:51:24 51°18.93 2°52.694 7.6 346 12.3 101210 43
2011-06-20 07:51:28 51°18.934 2°52.714 9.1 351 12.3 101210 42
2011-06-20 07:51:34 51°18.939 2°52.744 8.8 352 12.3 101210 42
2011-06-20 07:51:40 51°18.944 2°52.775 6.8 349 12.3 101210 42
2011-06-20 07:51:44 51°18.947 2°52.795 8.8 348 12.3 101210 42
2011-06-20 07:51:49 51°18.952 2°52.821 7.7 349 12.3 101210 43
2011-06-20 07:51:55 51°18.956 2°52.851 8.5 349 12.3 101210 43
2011-06-20 07:51:59 51°18.96 2°52.872 9.2 347 12.3 101210 43
2011-06-20 07:52:04 51°18.964 2°52.897 7.5 348 12.3 101210 43
2011-06-20 07:52:09 51°18.968 2°52.923 7.7 280 12.3 101210 42
2011-06-20 07:52:14 51°18.972 2°52.948 7.8 348 12.3 101210 42
2011-06-20 07:52:19 51°18.975 2°52.974 9.2 346 12.3 101220 43
2011-06-20 07:52:24 51°18.981 2°53 7.3 349 12.3 101220 43
2011-06-20 07:52:28 51°18.984 2°53.02 7 351 12.3 101210 43
2011-06-20 07:52:34 51°18.989 2°53.05 7.8 346 12.3 101210 43
2011-06-20 07:52:39 51°18.994 2°53.075 8 349 12.3 101210 43
2011-06-20 07:52:44 51°18.999 2°53.1 7.4 349 12.3 101210 43
2011-06-20 07:52:48 51°19.004 2°53.12 7.9 349 12.4 101210 43
2011-06-20 07:52:54 51°19.01 2°53.15 7.6 350 12.4 101210 43
2011-06-20 07:52:59 51°19.016 2°53.175 7.8 281 12.4 101220 43
2011-06-20 07:53:04 51°19.021 2°53.2 8.8 349 12.4 101220 43
2011-06-20 07:53:08 51°19.026 2°53.22 8.5 347 12.4 101210 43
2011-06-20 07:53:14 51°19.032 2°53.25 7 349 12.4 101210 43
2011-06-20 07:53:20 51°19.038 2°53.28 7.6 279 12.4 101210 42
2011-06-20 07:53:24 51°19.042 2°53.3 9.5 349 12.4 101210 42
2011-06-20 07:53:28 51°19.046 2°53.32 7.4 278 12.4 101220 42
2011-06-20 07:53:34 51°19.053 2°53.35 8 349 12.4 101220 42
2011-06-20 07:53:40 51°19.06 2°53.38 9 350 12.4 101210 42
2011-06-20 07:53:44 51°19.063 2°53.4 7.5 348 12.4 101210 42
2011-06-20 07:53:48 51°19.068 2°53.42 8.3 349 12.4 101220 43
2011-06-20 07:53:54 51°19.073 2°53.451 6.7 345 12.4 101220 43
2011-06-20 07:53:59 51°19.079 2°53.475 7.7 280 12.4 101220 43
2011-06-20 07:54:04 51°19.083 2°53.501 7.8 346 12.4 101220 43
2011-06-20 07:54:08 51°19.087 2°53.521 7.8 284 12.4 101220 43
2011-06-20 07:54:14 51°19.092 2°53.552 7.4 344 12.4 101220 43
2011-06-20 07:54:19 51°19.097 2°53.577 7.8 281 12.4 101210 42
2011-06-20 07:54:24 51°19.1 2°53.603 8.7 345 12.4 101210 42
2011-06-20 07:54:28 51°19.104 2°53.624 7.9 347 12.4 101220 43
2011-06-20 07:54:34 51°19.108 2°53.654 7.4 347 12.4 101220 43
2011-06-20 07:54:39 51°19.112 2°53.68 8.9 280 12.4 101220 43
2011-06-20 07:54:44 51°19.116 2°53.705 8.7 346 12.4 101220 43
2011-06-20 07:54:48 51°19.12 2°53.725 7.6 347 12.4 101220 42
2011-06-20 07:54:54 51°19.125 2°53.756 6.7 347 12.4 101220 42
2011-06-20 07:55:00 51°19.131 2°53.786 6.9 279 12.4 101210 42
2011-06-20 07:55:04 51°19.135 2°53.806 7 346 12.4 101210 42
2011-06-20 07:55:08 51°19.139 2°53.826 6.9 346 12.4 101210 43
2011-06-20 07:55:14 51°19.145 2°53.856 3.7 347 12.4 101210 43
2011-06-20 07:55:19 51°19.15 2°53.882 7.9 279 12.4 101210 43
2011-06-20 07:55:24 51°19.155 2°53.907 7.7 345 12.4 101210 43
2011-06-20 07:55:29 51°19.159 2°53.932 8.8 347 12.4 101220 42
2011-06-20 07:55:35 51°19.165 2°53.962 8 346 12.4 101220 42
2011-06-20 07:55:39 51°19.169 2°53.982 8.1 349 12.4 101220 43
2011-06-20 07:55:44 51°19.173 2°54.008 7.3 348 12.4 101220 43
2011-06-20 07:55:49 51°19.179 2°54.032 9.1 349 12.4 101220 43
2011-06-20 07:55:54 51°19.184 2°54.057 6.9 349 12.4 101220 43
2011-06-20 07:55:59 51°19.188 2°54.082 7.2 281 12.4 101220 43
2011-06-20 07:56:04 51°19.194 2°54.107 7 347 12.4 101220 43
2011-06-20 07:56:09 51°19.199 2°54.132 7.7 280 12.4 101220 43
2011-06-20 07:56:14 51°19.203 2°54.157 7.7 346 12.4 101220 43
2011-06-20 07:56:19 51°19.208 2°54.182 6.9 348 12.4 101220 43
2011-06-20 07:56:24 51°19.212 2°54.207 8.2 346 12.4 101220 43
2011-06-20 07:56:29 51°19.216 2°54.233 8 282 12.4 101220 43
2011-06-20 07:56:35 51°19.221 2°54.263 9.8 347 12.4 101220 43
2011-06-20 07:56:39 51°19.224 2°54.284 7.2 284 12.4 101220 43
2011-06-20 07:56:44 51°19.228 2°54.309 7 345 12.4 101220 43
2011-06-20 07:56:49 51°19.231 2°54.334 3.7 345 12.4 101220 43
2011-06-20 07:56:54 51°19.235 2°54.36 9.5 344 12.4 101220 43
2011-06-20 07:56:59 51°19.239 2°54.386 7.9 281 12.4 101220 42
2011-06-20 07:57:04 51°19.243 2°54.411 9.5 345 12.4 101220 42
2011-06-20 07:57:09 51°19.246 2°54.437 8.5 280 12.4 101220 42
2011-06-20 07:57:15 51°19.251 2°54.467 7.5 343 12.4 101220 42
2011-06-20 07:57:19 51°19.255 2°54.487 9.6 284 12.4 101210 42
2011-06-20 07:57:24 51°19.259 2°54.512 8 345 12.4 101210 42
2011-06-20 07:57:28 51°19.262 2°54.533 8.6 280 12.4 101220 42
2011-06-20 07:57:34 51°19.268 2°54.563 9 344 12.4 101220 42
2011-06-20 07:57:40 51°19.273 2°54.593 8.5 279 12.4 101220 43
2011-06-20 07:57:44 51°19.277 2°54.613 8.7 346 12.4 101220 43
2011-06-20 07:57:48 51°19.28 2°54.633 8.7 347 12.4 101210 43
2011-06-20 07:57:54 51°19.286 2°54.663 9.4 347 12.4 101210 43
2011-06-20 07:58:00 51°19.291 2°54.693 9 345 12.4 101220 43
2011-06-20 07:58:04 51°19.295 2°54.713 8.5 346 12.4 101220 43
2011-06-20 07:58:08 51°19.299 2°54.732 8.3 280 12.4 101210 42
2011-06-20 07:58:14 51°19.305 2°54.762 7.6 346 12.4 101210 42
2011-06-20 07:58:20 51°19.311 2°54.792 7.5 281 12.4 101220 43
2011-06-20 07:58:24 51°19.315 2°54.812 8.5 345 12.4 101220 43
2011-06-20 07:58:28 51°19.32 2°54.832 9.1 284 12.4 101220 43
2011-06-20 07:58:34 51°19.326 2°54.861 7.1 347 12.4 101220 43
2011-06-20 07:58:39 51°19.332 2°54.886 8.9 281 12.4 101220 43
2011-06-20 07:58:44 51°19.336 2°54.911 6.9 348 12.4 101220 43
2011-06-20 07:58:48 51°19.341 2°54.93 7.4 348 12.4 101220 43
2011-06-20 07:58:54 51°19.347 2°54.96 6.9 347 12.4 101220 43
2011-06-20 07:58:59 51°19.352 2°54.985 9.1 281 12.4 101210 43
2011-06-20 07:59:04 51°19.357 2°55.01 8.7 348 12.4 101210 43
2011-06-20 07:59:08 51°19.36 2°55.03 8.2 345 12.4 101220 43
2011-06-20 07:59:14 51°19.366 2°55.061 7.5 349 12.4 101220 43
2011-06-20 07:59:19 51°19.37 2°55.086 8.6 279 12.4 101220 43
2011-06-20 07:59:24 51°19.374 2°55.111 8.7 347 12.4 101220 43
2011-06-20 07:59:29 51°19.378 2°55.136 9.4 347 12.4 101220 43
2011-06-20 07:59:34 51°19.382 2°55.162 9.3 347 12.4 101220 43
2011-06-20 07:59:40 51°19.387 2°55.192 8.9 281 12.4 101220 42
2011-06-20 07:59:44 51°19.39 2°55.212 9.2 346 12.4 101220 42
2011-06-20 07:59:48 51°19.393 2°55.233 8.5 348 12.4 101220 43
2011-06-20 07:59:54 51°19.397 2°55.263 8.2 349 12.4 101220 43
2011-06-20 08:00:00 51°19.401 2°55.294 8.3 346 12.4 101220 42
2011-06-20 08:00:04 51°19.405 2°55.314 8.7 348 12.4 101220 42
2011-06-20 08:00:08 51°19.408 2°55.335 8.4 347 12.3 101210 43
2011-06-20 08:00:14 51°19.413 2°55.365 8.1 348 12.3 101210 43
2011-06-20 08:00:20 51°19.418 2°55.396 8.3 279 12.3 101210 42
2011-06-20 08:00:24 51°19.421 2°55.416 7.6 347 12.3 101210 42
2011-06-20 08:00:29 51°19.425 2°55.442 9 281 12.3 101220 43
2011-06-20 08:00:35 51°19.431 2°55.472 8.4 348 12.3 101220 43
2011-06-20 08:00:40 51°19.434 2°55.497 7.6 281 12.3 101200 42
2011-06-20 08:00:44 51°19.438 2°55.517 9.4 352 12.3 101200 42
2011-06-20 08:00:49 51°19.442 2°55.542 9.2 351 12.3 101210 42
2011-06-20 08:00:54 51°19.447 2°55.567 7.1 349 12.3 101210 42
2011-06-20 08:00:59 51°19.451 2°55.593 9.4 350 12.3 101210 43
2011-06-20 08:01:04 51°19.456 2°55.617 8.1 350 12.3 101210 43
2011-06-20 08:01:08 51°19.461 2°55.637 7 279 12.3 101200 43
2011-06-20 08:01:14 51°19.467 2°55.666 7.2 351 12.3 101200 43
2011-06-20 08:01:19 51°19.473 2°55.69 7.1 350 12.3 101210 43
2011-06-20 08:01:24 51°19.479 2°55.715 6.9 350 12.3 101210 43
2011-06-20 08:01:28 51°19.484 2°55.734 7.7 352 12.3 101220 43
2011-06-20 08:01:34 51°19.49 2°55.764 6.3 352 12.3 101220 43
2011-06-20 08:01:40 51°19.497 2°55.793 7.3 352 12.2 101210 43
2011-06-20 08:01:44 51°19.502 2°55.812 7.9 351 12.2 101210 43
2011-06-20 08:01:50 51°19.509 2°55.842 7.4 352 12.2 101210 42
2011-06-20 08:01:54 51°19.513 2°55.861 8.7 350 12.2 101210 42
2011-06-20 08:01:59 51°19.518 2°55.886 7.6 350 12.2 101210 43
2011-06-20 08:02:04 51°19.524 2°55.911 7.7 349 12.2 101210 43
2011-06-20 08:02:09 51°19.529 2°55.935 8.1 351 12.2 101210 42
2011-06-20 08:02:15 51°19.535 2°55.965 8.6 348 12.2 101210 42
2011-06-20 08:02:19 51°19.539 2°55.985 8 279 12.2 101220 40
2011-06-20 08:02:24 51°19.543 2°56.01 8.7 349 12.2 101220 40
2011-06-20 08:02:29 51°19.547 2°56.035 7.6 349 12.2 101210 43
2011-06-20 08:02:34 51°19.551 2°56.06 9 349 12.2 101210 43
2011-06-20 08:02:39 51°19.556 2°56.085 8 348 12.2 101210 43
2011-06-20 08:02:44 51°19.56 2°56.109 9.2 347 12.2 101210 43
2011-06-20 08:02:48 51°19.563 2°56.13 7.4 348 12.2 101210 42
2011-06-20 08:02:54 51°19.569 2°56.159 7.2 348 12.2 101210 42
2011-06-20 08:03:00 51°19.574 2°56.19 7.7 281 12.2 101210 43
2011-06-20 08:03:04 51°19.577 2°56.209 7 349 12.2 101210 43
2011-06-20 08:03:08 51°19.581 2°56.229 7.3 280 12.2 101210 42
2011-06-20 08:03:14 51°19.587 2°56.259 6.9 346 12.2 101210 42
2011-06-20 08:03:19 51°19.593 2°56.283 6.8 347 12.2 101210 43
2011-06-20 08:03:24 51°19.598 2°56.308 8.1 347 12.2 101210 43
2011-06-20 08:03:28 51°19.603 2°56.328 7.5 281 12.2 101220 42
2011-06-20 08:03:34 51°19.61 2°56.357 8.3 349 12.2 101220 42
2011-06-20 08:03:39 51°19.616 2°56.381 7.6 349 12.3 101210 43
2011-06-20 08:03:44 51°19.622 2°56.405 9.4 349 12.3 101210 43
2011-06-20 08:03:48 51°19.627 2°56.424 8.2 350 12.2 101210 42
2011-06-20 08:03:54 51°19.634 2°56.453 8 349 12.2 101210 42
2011-06-20 08:03:59 51°19.641 2°56.477 9.1 281 12.2 101210 43
2011-06-20 08:04:04 51°19.647 2°56.502 8.1 350 12.2 101210 43
2011-06-20 08:04:08 51°19.652 2°56.521 7.5 279 12.2 101220 42
2011-06-20 08:04:14 51°19.659 2°56.55 7.2 349 12.2 101220 42
2011-06-20 08:04:20 51°19.665 2°56.579 8.9 351 12.2 101210 43
2011-06-20 08:04:24 51°19.669 2°56.599 9 348 12.2 101210 43
2011-06-20 08:04:28 51°19.674 2°56.619 7.9 280 12.2 101210 43
2011-06-20 08:04:35 51°19.68 2°56.654 7.3 349 12.2 101210 43
2011-06-20 08:04:40 51°19.685 2°56.679 7 350 12.2 101210 42
2011-06-20 08:04:44 51°19.689 2°56.698 8.5 349 12.2 101210 42
2011-06-20 08:04:48 51°19.692 2°56.718 7.8 349 12.2 101220 42
2011-06-20 08:04:54 51°19.697 2°56.749 6.9 350 12.2 101220 42
2011-06-20 08:04:59 51°19.701 2°56.775 7.2 282 12.2 101220 41
2011-06-20 08:05:04 51°19.705 2°56.8 9 348 12.2 101220 41
2011-06-20 08:05:08 51°19.708 2°56.82 8.2 281 12.2 101220 42
2011-06-20 08:05:14 51°19.714 2°56.85 7.8 348 12.2 101220 42
2011-06-20 08:05:19 51°19.718 2°56.875 7 278 12.2 101210 43
2011-06-20 08:05:24 51°19.723 2°56.901 7.4 349 12.2 101210 43
2011-06-20 08:05:28 51°19.727 2°56.92 7 348 12.2 101220 43
2011-06-20 08:05:34 51°19.733 2°56.95 7.2 348 12.2 101220 43
2011-06-20 08:05:39 51°19.739 2°56.975 8.9 349 12.2 101210 43
2011-06-20 08:05:44 51°19.745 2°56.999 7 347 12.2 101210 43
2011-06-20 08:05:48 51°19.75 2°57.018 6.9 348 12.2 101210 43
2011-06-20 08:05:54 51°19.756 2°57.048 6.8 345 12.2 101210 43
2011-06-20 08:05:59 51°19.763 2°57.072 6.8 348 12.3 101220 43
2011-06-20 08:06:04 51°19.769 2°57.096 7.3 349 12.3 101220 43
2011-06-20 08:06:09 51°19.774 2°57.121 8.2 349 12.2 101220 42
2011-06-20 08:06:15 51°19.781 2°57.151 9.2 349 12.2 101220 42
2011-06-20 08:06:19 51°19.785 2°57.17 8 348 12.2 101210 42
2011-06-20 08:06:24 51°19.791 2°57.195 9 349 12.2 101210 42
2011-06-20 08:06:29 51°19.796 2°57.22 8.9 349 12.3 101210 42
2011-06-20 08:06:35 51°19.801 2°57.25 7.6 347 12.3 101210 42
2011-06-20 08:06:39 51°19.805 2°57.27 8.3 281 12.3 101220 43
2011-06-20 08:06:44 51°19.81 2°57.295 8.2 347 12.3 101220 43
2011-06-20 08:06:48 51°19.814 2°57.315 7.7 348 12.3 101220 42
2011-06-20 08:06:54 51°19.82 2°57.345 7.6 348 12.3 101220 42
2011-06-20 08:07:00 51°19.825 2°57.375 7.4 349 12.3 101220 42
2011-06-20 08:07:04 51°19.828 2°57.395 8.2 348 12.3 101220 42
2011-06-20 08:07:08 51°19.832 2°57.415 8.7 279 12.3 101220 43
2011-06-20 08:07:14 51°19.837 2°57.445 7.3 348 12.3 101220 43
2011-06-20 08:07:19 51°19.842 2°57.47 7.1 349 12.3 101220 43
2011-06-20 08:07:24 51°19.847 2°57.495 6.5 350 12.3 101220 43
2011-06-20 08:07:28 51°19.852 2°57.515 7.2 278 12.3 101220 43
2011-06-20 08:07:34 51°19.859 2°57.544 7.3 349 12.3 101220 43
2011-06-20 08:07:39 51°19.865 2°57.568 8.2 350 12.3 101220 41
2011-06-20 08:07:44 51°19.871 2°57.592 9.1 350 12.3 101220 41
2011-06-20 08:07:48 51°19.876 2°57.612 8.3 350 12.3 101220 43
2011-06-20 08:07:54 51°19.884 2°57.641 7.4 352 12.3 101220 43
2011-06-20 08:07:59 51°19.89 2°57.665 7.3 351 12.3 101220 43
2011-06-20 08:08:04 51°19.896 2°57.689 8.9 351 12.3 101220 43
2011-06-20 08:08:09 51°19.902 2°57.714 6.9 279 12.3 101220 42
2011-06-20 08:08:15 51°19.909 2°57.743 8.6 351 12.3 101220 42
2011-06-20 08:08:19 51°19.914 2°57.763 8 351 12.3 101220 42
2011-06-20 08:08:24 51°19.92 2°57.788 7.3 351 12.3 101220 42
2011-06-20 08:08:29 51°19.925 2°57.812 7.1 280 12.3 101220 42
2011-06-20 08:08:35 51°19.931 2°57.842 8.2 351 12.3 101220 42
2011-06-20 08:08:39 51°19.935 2°57.862 7.4 350 12.3 101210 43
2011-06-20 08:08:44 51°19.94 2°57.887 8.5 351 12.3 101210 43
2011-06-20 08:08:49 51°19.944 2°57.912 7.5 351 12.3 101220 42
2011-06-20 08:08:55 51°19.95 2°57.942 9 350 12.3 101220 42
2011-06-20 08:09:00 51°19.953 2°57.967 7.9 280 12.3 101220 43
2011-06-20 08:09:04 51°19.957 2°57.987 7.6 350 12.3 101220 43
2011-06-20 08:09:09 51°19.961 2°58.013 8.8 349 12.2 101210 43
2011-06-20 08:09:14 51°19.965 2°58.038 8.7 351 12.2 101210 43
2011-06-20 08:09:20 51°19.971 2°58.067 7 278 12.3 101210 43
2011-06-20 08:09:24 51°19.974 2°58.087 6.6 350 12.3 101210 43
2011-06-20 08:09:28 51°19.979 2°58.107 7.4 351 12.3 101210 42
2011-06-20 08:09:34 51°19.984 2°58.137 6.8 350 12.3 101210 42
2011-06-20 08:09:40 51°19.991 2°58.166 6.8 352 12.3 101220 43
2011-06-20 08:09:44 51°19.996 2°58.186 7.5 349 12.3 101220 43
2011-06-20 08:09:48 51°20.001 2°58.205 8 350 12.3 101220 42
2011-06-20 08:09:54 51°20.007 2°58.234 6.6 351 12.3 101220 42
2011-06-20 08:09:59 51°20.013 2°58.258 6.3 350 12.3 101220 43
2011-06-20 08:10:04 51°20.019 2°58.283 7.1 348 12.3 101220 43
2011-06-20 08:10:09 51°20.026 2°58.307 6.9 351 12.2 101220 43
2011-06-20 08:10:15 51°20.033 2°58.336 7.2 347 12.2 101220 43
2011-06-20 08:10:19 51°20.038 2°58.355 7 281 12.3 101220 41
2011-06-20 08:10:24 51°20.043 2°58.38 7.4 349 12.3 101220 41
2011-06-20 08:10:29 51°20.049 2°58.404 7.5 349 12.3 101220 43
2011-06-20 08:10:34 51°20.054 2°58.429 8.7 347 12.3 101220 43
2011-06-20 08:10:40 51°20.061 2°58.459 7.7 349 12.3 101220 43
2011-06-20 08:10:44 51°20.064 2°58.479 7.2 348 12.3 101220 43
2011-06-20 08:10:49 51°20.068 2°58.504 7 347 12.3 101220 42
2011-06-20 08:10:55 51°20.074 2°58.534 3.6 347 12.3 101220 42
2011-06-20 08:11:00 51°20.079 2°58.559 9 279 12.3 101230 42
2011-06-20 08:11:04 51°20.082 2°58.579 7.7 345 12.3 101230 42
2011-06-20 08:11:09 51°20.087 2°58.604 6.6 349 12.3 101220 43
2011-06-20 08:11:14 51°20.091 2°58.629 7.7 347 12.3 101220 43
2011-06-20 08:11:19 51°20.095 2°58.654 7.3 280 12.3 101230 43
2011-06-20 08:11:24 51°20.1 2°58.679 7 350 12.3 101230 43
2011-06-20 08:11:29 51°20.106 2°58.703 8.1 348 12.3 101230 43
2011-06-20 08:11:34 51°20.111 2°58.728 7.4 348 12.3 101230 43
2011-06-20 08:11:40 51°20.117 2°58.757 7.8 280 12.3 101220 43
2011-06-20 08:11:44 51°20.122 2°58.776 6.8 349 12.3 101220 43
2011-06-20 08:11:49 51°20.128 2°58.801 7.2 350 12.3 101220 43
2011-06-20 08:11:54 51°20.134 2°58.825 6.8 350 12.3 101220 43
2011-06-20 08:11:59 51°20.14 2°58.849 7.8 281 12.3 101220 43
2011-06-20 08:12:04 51°20.145 2°58.873 7.6 346 12.3 101220 43
2011-06-20 08:12:09 51°20.151 2°58.897 6.9 347 12.3 101220 42
2011-06-20 08:12:14 51°20.156 2°58.922 7.4 347 12.3 101220 42
2011-06-20 08:12:20 51°20.162 2°58.952 7 348 12.3 101230 43
2011-06-20 08:12:24 51°20.165 2°58.971 8.6 345 12.3 101230 43
2011-06-20 08:12:29 51°20.17 2°58.996 6.6 348 12.3 101220 42
2011-06-20 08:12:34 51°20.175 2°59.021 8.7 348 12.3 101220 42
2011-06-20 08:12:40 51°20.18 2°59.051 7 348 12.3 101230 43
2011-06-20 08:12:44 51°20.183 2°59.07 6.7 345 12.3 101230 43
2011-06-20 08:12:48 51°20.187 2°59.09 7.9 345 12.3 101230 43
2011-06-20 08:12:54 51°20.192 2°59.12 8.3 348 12.3 101230 43
2011-06-20 08:13:00 51°20.197 2°59.15 8.5 283 12.3 101230 42
2011-06-20 08:13:04 51°20.2 2°59.17 7.2 347 12.3 101230 42
2011-06-20 08:13:08 51°20.204 2°59.19 7.6 280 12.3 101230 43
2011-06-20 08:13:14 51°20.21 2°59.219 7.2 347 12.3 101230 43
2011-06-20 08:13:19 51°20.214 2°59.244 6.7 279 12.3 101230 43
2011-06-20 08:13:24 51°20.22 2°59.268 9 349 12.3 101230 43
2011-06-20 08:13:29 51°20.225 2°59.292 7.5 282 12.3 101230 43
2011-06-20 08:13:35 51°20.233 2°59.32 6.7 346 12.3 101230 43
2011-06-20 08:13:40 51°20.239 2°59.344 8.7 284 12.3 101220 42
2011-06-20 08:13:44 51°20.244 2°59.363 7.2 345 12.3 101220 42
2011-06-20 08:13:49 51°20.25 2°59.387 7.5 346 12.3 101230 43
2011-06-20 08:13:54 51°20.256 2°59.41 6.8 347 12.3 101230 43
2011-06-20 08:13:59 51°20.262 2°59.434 7.3 345 12.3 101230 43
2011-06-20 08:14:04 51°20.268 2°59.458 9 344 12.3 101230 43
2011-06-20 08:14:09 51°20.274 2°59.481 9 284 12.4 101230 43
2011-06-20 08:14:15 51°20.282 2°59.51 8.2 345 12.4 101230 43
2011-06-20 08:14:20 51°20.287 2°59.534 8.2 281 12.3 101220 43
2011-06-20 08:14:24 51°20.291 2°59.553 7.4 346 12.3 101220 43
2011-06-20 08:14:29 51°20.297 2°59.577 8.3 283 12.3 101220 43
2011-06-20 08:14:34 51°20.302 2°59.602 7.8 347 12.3 101220 43
2011-06-20 08:14:39 51°20.306 2°59.626 6.6 347 12.3 101220 42
2011-06-20 08:14:44 51°20.31 2°59.651 7.3 346 12.3 101220 42